Time;durP1;ratioP1;P1;durP2;ratioP2;P2;SDS_P1;SDS_P2;PMS_P1;PMS_P2;Temp;Humidity;BMP_temperature;BMP_pressure;BME280_temperature;BME280_humidity;BME280_pressure;Samples;Min_cycle;Max_cycle;Signal;HPM_P1;HPM_P2
2022/01/15 00:02:25;;;;;;;13.55;5.13;;;;;;;;;;6285014;22;20076;-78
2022/01/15 00:04:56;;;;;;;8.73;4.28;;;;;;;;;;6338167;22;20492;-78
2022/01/15 00:07:29;;;;;;;13.52;5.80;;;;;;;;;;6337785;22;20491;-78
2022/01/15 00:09:59;;;;;;;17.37;5.83;;;;;;;;;;6310367;22;20050;-78
2022/01/15 00:12:34;;;;;;;14.27;5.05;;;;;;;;;;6337680;22;20089;-78
2022/01/15 00:15:04;;;;;;;12.30;5.55;;;;;;;;;;6285236;22;20064;-78
2022/01/15 00:17:46;;;;;;;12.70;6.32;;;;;;;;;;6337348;22;20023;-78
2022/01/15 00:20:19;;;;;;;14.13;5.88;;;;;;;;;;6285455;22;20071;-78
2022/01/15 00:22:57;;;;;;;16.10;6.27;;;;;;;;;;6284270;22;20040;-78
2022/01/15 00:25:27;;;;;;;16.67;6.30;;;;;;;;;;6285713;22;20022;-78
2022/01/15 00:27:56;;;;;;;13.57;5.38;;;;;;;;;;6284286;22;20447;-79
2022/01/15 00:30:26;;;;;;;14.07;6.03;;;;;;;;;;6286352;22;20697;-78
2022/01/15 00:32:55;;;;;;;13.77;5.40;;;;;;;;;;6336466;22;20018;-78
2022/01/15 00:35:26;;;;;;;10.87;5.27;;;;;;;;;;6311291;22;20015;-78
2022/01/15 00:37:57;;;;;;;14.05;4.82;;;;;;;;;;6283424;22;20023;-78
2022/01/15 00:40:26;;;;;;;14.98;5.07;;;;;;;;;;6311190;22;20506;-78
2022/01/15 00:42:57;;;;;;;18.00;5.68;;;;;;;;;;6337427;22;20038;-78
2022/01/15 00:45:31;;;;;;;9.40;4.93;;;;;;;;;;6337833;22;20523;-78
2022/01/15 00:48:02;;;;;;;14.27;5.20;;;;;;;;;;6337675;22;20015;-78
2022/01/15 00:50:31;;;;;;;16.88;5.07;;;;;;;;;;6337350;22;20040;-78
2022/01/15 00:53:02;;;;;;;13.73;5.35;;;;;;;;;;6283674;22;20496;-78
2022/01/15 00:55:31;;;;;;;14.98;5.55;;;;;;;;;;6283963;22;20022;-78
2022/01/15 00:58:00;;;;;;;13.57;5.10;;;;;;;;;;6284549;22;20015;-78
2022/01/15 01:00:30;;;;;;;12.07;5.20;;;;;;;;;;6283804;22;20011;-78
2022/01/15 01:02:59;;;;;;;9.85;4.75;;;;;;;;;;6284978;22;20056;-79
2022/01/15 01:05:28;;;;;;;11.43;4.25;;;;;;;;;;6311154;22;20110;-79
2022/01/15 01:07:57;;;;;;;13.95;5.72;;;;;;;;;;6339244;22;20115;-78
2022/01/15 01:13:38;;;;;;;16.83;5.37;;;;;;;;;;6318300;22;20094;-79
2022/01/15 01:24:40;;;;;;;15.18;5.80;;;;;;;;;;6346921;22;20034;-79
2022/01/15 01:27:17;;;;;;;13.17;3.33;;;;;;;;;;6294427;22;20102;-79
2022/01/15 01:32:43;;;;;;;11.95;5.43;;;;;;;;;;6343423;22;20071;-79
2022/01/15 01:35:17;;;;;;;15.23;4.78;;;;;;;;;;6342606;22;20007;-79
2022/01/15 01:37:50;;;;;;;21.23;4.43;;;;;;;;;;6340045;22;20026;-79
2022/01/15 01:40:48;;;;;;;12.83;4.57;;;;;;;;;;6340042;22;20010;-78
2022/01/15 01:46:17;;;;;;;15.75;5.50;;;;;;;;;;6284640;22;20019;-79
2022/01/15 01:48:47;;;;;;;13.20;6.50;;;;;;;;;;6336603;22;20019;-79
2022/01/15 01:51:21;;;;;;;13.57;5.22;;;;;;;;;;6337717;22;20093;-79
2022/01/15 01:53:54;;;;;;;15.23;5.57;;;;;;;;;;6337962;22;20476;-78
2022/01/15 01:56:23;;;;;;;15.63;5.03;;;;;;;;;;6338212;22;20019;-79
2022/01/15 01:59:00;;;;;;;9.20;5.03;;;;;;;;;;6338456;22;20018;-78
2022/01/15 02:01:58;;;;;;;14.45;6.10;;;;;;;;;;6310532;22;20029;-79
2022/01/15 02:04:52;;;;;;;12.50;4.40;;;;;;;;;;6337798;22;20078;-79
2022/01/15 02:07:21;;;;;;;19.30;5.70;;;;;;;;;;6284114;22;20026;-78
2022/01/15 02:09:52;;;;;;;15.50;4.97;;;;;;;;;;6284166;22;20018;-79
2022/01/15 02:12:23;;;;;;;18.05;5.55;;;;;;;;;;6308963;22;20097;-78
2022/01/15 02:14:54;;;;;;;12.18;5.22;;;;;;;;;;6310403;22;20098;-78
2022/01/15 02:17:24;;;;;;;15.00;4.68;;;;;;;;;;6283424;22;20088;-78
2022/01/15 02:20:10;;;;;;;10.00;5.00;;;;;;;;;;6336799;22;20018;-79
2022/01/15 02:25:26;;;;;;;10.57;5.05;;;;;;;;;;6337120;22;20015;-78
2022/01/15 02:27:55;;;;;;;26.58;6.63;;;;;;;;;;6337347;22;20015;-78
2022/01/15 02:30:24;;;;;;;14.75;4.93;;;;;;;;;;6337242;22;20056;-78
2022/01/15 02:32:53;;;;;;;15.43;5.73;;;;;;;;;;6336791;22;20021;-78
2022/01/15 02:35:24;;;;;;;13.90;6.30;;;;;;;;;;6336917;22;20345;-78
2022/01/15 02:37:54;;;;;;;18.75;5.22;;;;;;;;;;6283953;22;20621;-78
2022/01/15 02:40:23;;;;;;;10.13;4.90;;;;;;;;;;6283138;22;20014;-78
2022/01/15 02:42:53;;;;;;;11.65;5.15;;;;;;;;;;6337621;22;20018;-78
2022/01/15 02:45:23;;;;;;;11.73;4.53;;;;;;;;;;6336444;22;20174;-78
2022/01/15 02:48:01;;;;;;;22.83;7.00;;;;;;;;;;6284407;22;20425;-78
2022/01/15 02:50:31;;;;;;;13.23;4.65;;;;;;;;;;6282363;22;20015;-78
2022/01/15 02:53:02;;;;;;;15.18;4.88;;;;;;;;;;6336794;22;20038;-78
2022/01/15 02:55:31;;;;;;;15.30;6.10;;;;;;;;;;6282187;22;20019;-78
2022/01/15 02:58:00;;;;;;;12.53;5.27;;;;;;;;;;6283969;22;20018;-78
2022/01/15 03:00:30;;;;;;;11.30;5.40;;;;;;;;;;6336272;22;20471;-79
2022/01/15 03:02:59;;;;;;;15.73;5.25;;;;;;;;;;6309111;22;20515;-79
2022/01/15 03:05:29;;;;;;;18.88;5.78;;;;;;;;;;6336285;22;20021;-78
2022/01/15 03:08:00;;;;;;;19.88;6.28;;;;;;;;;;6335889;22;20073;-78
2022/01/15 03:10:29;;;;;;;11.53;6.17;;;;;;;;;;6337488;22;20330;-78
2022/01/15 03:13:00;;;;;;;15.35;5.78;;;;;;;;;;6283103;22;20050;-78
2022/01/15 03:15:31;;;;;;;18.58;5.43;;;;;;;;;;6337090;22;20019;-78
2022/01/15 03:18:01;;;;;;;12.30;5.32;;;;;;;;;;6335971;22;20532;-78
2022/01/15 03:20:30;;;;;;;10.88;4.50;;;;;;;;;;6336856;22;20068;-78
2022/01/15 03:23:01;;;;;;;19.17;5.93;;;;;;;;;;6336570;22;20026;-78
2022/01/15 03:25:31;;;;;;;10.73;5.60;;;;;;;;;;6282985;22;20061;-78
2022/01/15 03:28:03;;;;;;;16.48;5.25;;;;;;;;;;6337189;22;20022;-78
2022/01/15 03:30:35;;;;;;;14.35;5.10;;;;;;;;;;6336482;22;20091;-78
2022/01/15 03:33:04;;;;;;;13.55;5.40;;;;;;;;;;6310928;22;20085;-78
2022/01/15 03:35:34;;;;;;;16.57;6.47;;;;;;;;;;6338701;22;20365;-77
2022/01/15 03:38:07;;;;;;;14.80;5.97;;;;;;;;;;6338887;22;20388;-78
2022/01/15 03:40:37;;;;;;;13.32;4.75;;;;;;;;;;6338484;22;20022;-78
2022/01/15 03:43:07;;;;;;;15.32;4.93;;;;;;;;;;6287018;22;20053;-78
2022/01/15 03:46:00;;;;;;;13.20;4.80;;;;;;;;;;6338057;22;20095;-78
2022/01/15 03:48:31;;;;;;;13.17;5.30;;;;;;;;;;6339449;22;20453;-78
2022/01/15 03:51:00;;;;;;;16.67;5.97;;;;;;;;;;6283530;22;20019;-78
2022/01/15 03:53:31;;;;;;;14.25;4.45;;;;;;;;;;6339353;22;20011;-78
2022/01/15 03:56:02;;;;;;;13.95;4.75;;;;;;;;;;6337698;22;20011;-78
2022/01/15 03:58:38;;;;;;;11.82;4.90;;;;;;;;;;6338784;22;20085;-77
2022/01/15 04:01:10;;;;;;;13.80;4.93;;;;;;;;;;6337796;22;20121;-79
2022/01/15 04:03:42;;;;;;;15.15;5.82;;;;;;;;;;6338298;22;20025;-78
2022/01/15 04:06:12;;;;;;;10.32;5.40;;;;;;;;;;6284938;22;20072;-78
2022/01/15 04:08:43;;;;;;;15.02;6.72;;;;;;;;;;6338235;22;20049;-78
2022/01/15 04:11:12;;;;;;;14.95;5.97;;;;;;;;;;6338825;22;20818;-77
2022/01/15 04:13:41;;;;;;;16.53;6.30;;;;;;;;;;6338489;22;20022;-78
2022/01/15 04:16:10;;;;;;;15.52;4.65;;;;;;;;;;6286664;22;20010;-78
2022/01/15 04:18:41;;;;;;;17.38;6.15;;;;;;;;;;6284522;22;20010;-78
2022/01/15 04:21:10;;;;;;;19.88;6.63;;;;;;;;;;6339449;22;20445;-78
2022/01/15 04:23:39;;;;;;;17.92;5.65;;;;;;;;;;6284612;22;20026;-78
2022/01/15 04:26:13;;;;;;;13.37;4.80;;;;;;;;;;6338772;22;20076;-78
2022/01/15 04:28:42;;;;;;;15.35;6.47;;;;;;;;;;6338040;22;20054;-78
2022/01/15 04:31:11;;;;;;;13.55;5.82;;;;;;;;;;6339189;22;20034;-78
2022/01/15 04:33:41;;;;;;;16.73;5.88;;;;;;;;;;6338356;22;20023;-78
2022/01/15 04:36:10;;;;;;;11.35;4.03;;;;;;;;;;6310051;22;20015;-78
2022/01/15 04:38:44;;;;;;;12.47;4.17;;;;;;;;;;6285760;22;20015;-78
2022/01/15 04:41:15;;;;;;;13.65;5.10;;;;;;;;;;6285073;22;20446;-78
2022/01/15 04:43:44;;;;;;;14.38;4.95;;;;;;;;;;6340501;22;20022;-78
2022/01/15 04:46:14;;;;;;;14.60;5.05;;;;;;;;;;6343764;22;20073;-79
2022/01/15 04:48:43;;;;;;;10.93;5.00;;;;;;;;;;6342984;22;20041;-78
2022/01/15 04:51:13;;;;;;;17.87;5.53;;;;;;;;;;6312343;22;20029;-78
2022/01/15 04:53:42;;;;;;;12.35;4.45;;;;;;;;;;6340671;22;20014;-78
2022/01/15 04:56:12;;;;;;;16.70;6.35;;;;;;;;;;6342440;22;20394;-79
2022/01/15 04:58:42;;;;;;;14.05;4.93;;;;;;;;;;6342585;22;20038;-78
2022/01/15 05:01:12;;;;;;;14.55;4.85;;;;;;;;;;6342458;22;20026;-78
2022/01/15 05:03:42;;;;;;;13.43;4.63;;;;;;;;;;6288238;22;20025;-78
2022/01/15 05:06:13;;;;;;;13.05;5.10;;;;;;;;;;6289180;22;20083;-78
2022/01/15 05:08:45;;;;;;;17.08;5.53;;;;;;;;;;6343521;22;20050;-78
2022/01/15 05:11:25;;;;;;;12.38;5.05;;;;;;;;;;6291677;22;20015;-78
2022/01/15 05:13:56;;;;;;;10.30;4.03;;;;;;;;;;6343496;22;20033;-78
2022/01/15 05:16:26;;;;;;;13.03;4.83;;;;;;;;;;6316368;22;20011;-78
2022/01/15 05:18:55;;;;;;;15.85;4.72;;;;;;;;;;6287965;22;20102;-78
2022/01/15 05:21:24;;;;;;;17.17;5.88;;;;;;;;;;6315780;22;20025;-79
2022/01/15 05:23:53;;;;;;;11.68;5.03;;;;;;;;;;6340322;22;20078;-78
2022/01/15 05:26:23;;;;;;;13.50;6.35;;;;;;;;;;6288288;22;20015;-78
2022/01/15 05:28:57;;;;;;;12.83;4.27;;;;;;;;;;6341898;22;20011;-78
2022/01/15 05:31:27;;;;;;;12.90;3.60;;;;;;;;;;6288674;22;20014;-78
2022/01/15 05:33:56;;;;;;;17.73;5.18;;;;;;;;;;6312976;22;20066;-78
2022/01/15 05:36:51;;;;;;;19.70;5.28;;;;;;;;;;6312085;22;20018;-78
2022/01/15 05:39:19;;;;;;;14.82;6.25;;;;;;;;;;6284525;22;20113;-78
2022/01/15 05:41:49;;;;;;;10.57;5.30;;;;;;;;;;6337757;22;20026;-78
2022/01/15 05:44:20;;;;;;;13.55;4.78;;;;;;;;;;6338325;22;20113;-78
2022/01/15 05:46:49;;;;;;;17.00;4.60;;;;;;;;;;6337607;22;20018;-78
2022/01/15 05:49:19;;;;;;;12.57;5.25;;;;;;;;;;6338560;22;20038;-79
2022/01/15 05:52:11;;;;;;;14.38;5.22;;;;;;;;;;6283875;22;20025;-79
2022/01/15 05:54:41;;;;;;;15.10;5.23;;;;;;;;;;6338028;22;20042;-79
2022/01/15 05:57:10;;;;;;;12.93;4.00;;;;;;;;;;6337671;22;20053;-79
2022/01/15 05:59:41;;;;;;;12.05;5.03;;;;;;;;;;6284681;22;20346;-79
2022/01/15 06:02:11;;;;;;;12.63;4.03;;;;;;;;;;6284829;22;20029;-79
2022/01/15 06:04:40;;;;;;;14.50;5.75;;;;;;;;;;6338073;22;20064;-79
2022/01/15 06:07:10;;;;;;;14.07;4.70;;;;;;;;;;6339878;22;20460;-80
2022/01/15 06:09:40;;;;;;;18.98;5.88;;;;;;;;;;6341357;22;20018;-80
2022/01/15 06:12:42;;;;;;;11.02;4.05;;;;;;;;;;6345160;22;20519;-79
2022/01/15 06:15:17;;;;;;;9.85;5.18;;;;;;;;;;6344559;22;20025;-80
2022/01/15 06:17:46;;;;;;;10.43;4.13;;;;;;;;;;6346151;22;20414;-79
2022/01/15 06:20:16;;;;;;;12.80;4.57;;;;;;;;;;6340955;22;20755;-79
2022/01/15 06:22:45;;;;;;;16.63;5.45;;;;;;;;;;6342956;22;20388;-79
2022/01/15 06:25:15;;;;;;;17.85;5.97;;;;;;;;;;6341977;22;20022;-80
2022/01/15 06:27:46;;;;;;;14.40;4.80;;;;;;;;;;6344636;22;20450;-80
2022/01/15 06:30:20;;;;;;;13.93;5.35;;;;;;;;;;6342100;22;20018;-80
2022/01/15 06:32:50;;;;;;;17.57;5.27;;;;;;;;;;6313881;22;20029;-78
2022/01/15 06:35:24;;;;;;;13.00;4.80;;;;;;;;;;6313025;22;20022;-80
2022/01/15 06:37:58;;;;;;;15.40;4.85;;;;;;;;;;6344039;22;20023;-80
2022/01/15 06:40:55;;;;;;;11.57;4.05;;;;;;;;;;6313716;22;20015;-79
2022/01/15 06:43:26;;;;;;;17.20;5.45;;;;;;;;;;6320102;22;20023;-80
2022/01/15 06:46:02;;;;;;;11.03;5.60;;;;;;;;;;6294423;22;20018;-79
2022/01/15 06:48:32;;;;;;;9.68;4.28;;;;;;;;;;6346507;22;20018;-78
2022/01/15 06:51:32;;;;;;;11.55;4.55;;;;;;;;;;6328416;22;20018;-81
2022/01/15 06:54:02;;;;;;;11.73;4.85;;;;;;;;;;6329542;22;20034;-82
2022/01/15 06:56:34;;;;;;;11.63;4.28;;;;;;;;;;6330615;22;20007;-82
2022/01/15 06:59:12;;;;;;;11.63;4.00;;;;;;;;;;6331684;22;20027;-81
2022/01/15 07:01:43;;;;;;;13.35;5.20;;;;;;;;;;6338567;22;20018;-77
2022/01/15 07:04:20;;;;;;;15.27;4.68;;;;;;;;;;6320893;22;20053;-78
2022/01/15 07:24:24;;;;;;;14.60;4.60;;;;;;;;;;6357843;22;20416;-75
2022/01/15 07:27:06;;;;;;;14.93;5.65;;;;;;;;;;6325594;22;20014;-76
2022/01/15 07:29:37;;;;;;;14.87;5.50;;;;;;;;;;6349703;22;20097;-79
2022/01/15 07:32:35;;;;;;;11.00;4.55;;;;;;;;;;6352225;22;20015;-77
2022/01/15 07:35:27;;;;;;;19.88;7.00;;;;;;;;;;6293055;22;20021;-79
2022/01/15 07:38:25;;;;;;;16.02;5.97;;;;;;;;;;6328185;22;20045;-78
2022/01/15 07:40:59;;;;;;;18.45;6.97;;;;;;;;;;6311651;22;20015;-77
2022/01/15 07:43:30;;;;;;;18.97;7.53;;;;;;;;;;6319685;22;20023;-79
2022/01/15 07:46:30;;;;;;;14.45;5.82;;;;;;;;;;6350317;22;20021;-79
2022/01/15 07:53:19;;;;;;;20.48;4.95;;;;;;;;;;6338125;22;20067;-81
2022/01/15 07:55:52;;;;;;;11.93;5.60;;;;;;;;;;6381513;22;20040;-80
2022/01/15 08:01:16;;;;;;;14.30;6.05;;;;;;;;;;6379357;22;20002;-77
2022/01/15 08:03:46;;;;;;;14.88;5.63;;;;;;;;;;6369523;22;20030;-80
2022/01/15 08:06:15;;;;;;;23.63;6.63;;;;;;;;;;6395967;22;20002;-81
2022/01/15 08:11:33;;;;;;;14.70;6.07;;;;;;;;;;6348069;22;20007;-80
2022/01/15 08:14:05;;;;;;;19.88;6.80;;;;;;;;;;6312727;22;19999;-81
2022/01/15 08:16:34;;;;;;;19.85;6.18;;;;;;;;;;6339706;22;19998;-81
2022/01/15 08:19:03;;;;;;;21.20;7.80;;;;;;;;;;6337659;22;20046;-81
2022/01/15 08:39:14;;;;;;;21.03;6.17;;;;;;;;;;6335925;22;20097;-77
2022/01/15 08:41:48;;;;;;;27.52;9.18;;;;;;;;;;6316842;22;20049;-77
2022/01/15 08:44:19;;;;;;;22.83;7.75;;;;;;;;;;6312351;22;20022;-76
2022/01/15 08:46:48;;;;;;;20.10;7.75;;;;;;;;;;6338294;22;20019;-77
2022/01/15 08:49:19;;;;;;;19.15;7.97;;;;;;;;;;6310426;22;20025;-76
2022/01/15 08:52:12;;;;;;;21.10;7.23;;;;;;;;;;6337572;22;20041;-76
2022/01/15 08:55:08;;;;;;;24.92;8.68;;;;;;;;;;6332345;22;20472;-77
2022/01/15 09:03:28;;;;;;;23.27;7.10;;;;;;;;;;6363349;22;20023;-81
2022/01/15 09:06:01;;;;;;;24.73;8.27;;;;;;;;;;6314808;22;20094;-81
2022/01/15 09:08:38;;;;;;;18.95;6.85;;;;;;;;;;6366202;22;20025;-81
2022/01/15 09:11:10;;;;;;;15.82;6.25;;;;;;;;;;6367148;22;20010;-82
2022/01/15 09:13:40;;;;;;;20.02;7.82;;;;;;;;;;6358533;22;20006;-80
2022/01/15 09:16:12;;;;;;;17.77;7.43;;;;;;;;;;6360049;22;20036;-79
2022/01/15 09:21:38;;;;;;;16.75;7.53;;;;;;;;;;6351273;22;20022;-82
2022/01/15 09:48:12;;;;;;;7.07;3.30;;;;;;;;;;6349174;22;20074;31
2022/01/15 10:08:20;;;;;;;14.77;5.55;;;;;;;;;;6375421;22;20022;-78
2022/01/15 10:10:52;;;;;;;13.05;5.30;;;;;;;;;;6372754;22;20018;-78
2022/01/15 10:13:22;;;;;;;13.63;5.88;;;;;;;;;;6390085;22;20078;-79
2022/01/15 10:16:11;;;;;;;16.40;5.83;;;;;;;;;;6369703;22;20511;-77
2022/01/15 10:27:53;;;;;;;14.80;5.28;;;;;;;;;;6331892;22;20007;-78
2022/01/15 10:30:26;;;;;;;11.90;5.23;;;;;;;;;;6356732;22;20011;-80
2022/01/15 10:44:50;;;;;;;9.63;3.97;;;;;;;;;;6359374;22;20070;-79
2022/01/15 10:47:50;;;;;;;14.63;4.72;;;;;;;;;;6340599;22;20023;-76
2022/01/15 11:07:45;;;;;;;11.00;4.53;;;;;;;;;;6308002;22;20021;-79
2022/01/15 11:10:18;;;;;;;10.80;5.55;;;;;;;;;;6297787;22;20012;-80
2022/01/15 11:12:47;;;;;;;11.87;4.03;;;;;;;;;;6274198;22;20169;-75
2022/01/15 11:15:17;;;;;;;12.00;4.15;;;;;;;;;;6278274;22;20015;-76
2022/01/15 11:17:48;;;;;;;11.65;4.65;;;;;;;;;;6306392;22;20002;-76
2022/01/15 11:20:17;;;;;;;9.60;3.92;;;;;;;;;;6307026;22;20096;-76
2022/01/15 11:25:57;;;;;;;9.33;4.27;;;;;;;;;;6325725;22;20031;-80
2022/01/15 11:33:01;;;;;;;9.23;3.28;;;;;;;;;;6321226;22;21228;-82
2022/01/15 11:45:55;;;;;;;9.80;3.65;;;;;;;;;;6273086;22;20063;-80
2022/01/15 11:48:28;;;;;;;5.03;2.08;;;;;;;;;;6277522;22;20011;-79
2022/01/15 11:51:17;;;;;;;7.45;2.85;;;;;;;;;;6304453;22;20045;-79
2022/01/15 11:53:47;;;;;;;7.82;2.70;;;;;;;;;;6279480;22;20057;-79
2022/01/15 11:56:17;;;;;;;8.20;3.20;;;;;;;;;;6305933;22;20019;-79
2022/01/15 11:58:47;;;;;;;6.93;3.00;;;;;;;;;;6279634;22;20023;-79
2022/01/15 12:01:31;;;;;;;7.32;2.25;;;;;;;;;;6306475;22;20392;-79
2022/01/15 12:04:16;;;;;;;6.53;2.15;;;;;;;;;;6308637;22;20041;-79
2022/01/15 12:07:04;;;;;;;4.32;2.15;;;;;;;;;;6279746;22;20095;-79
2022/01/15 12:09:38;;;;;;;5.90;2.27;;;;;;;;;;6282057;22;20026;-79
2022/01/15 12:12:29;;;;;;;4.15;2.35;;;;;;;;;;6325606;22;20023;-77
2022/01/15 12:15:00;;;;;;;6.38;3.05;;;;;;;;;;6268688;22;20067;-80
2022/01/15 12:17:32;;;;;;;6.70;2.63;;;;;;;;;;6304761;22;20018;-80
2022/01/15 12:20:02;;;;;;;5.45;2.63;;;;;;;;;;6310442;22;20015;-82
2022/01/15 12:28:33;;;;;;;5.18;2.72;;;;;;;;;;6298742;22;20023;-77
2022/01/15 12:33:58;;;;;;;8.18;2.90;;;;;;;;;;6310538;22;20393;-79
2022/01/15 12:36:52;;;;;;;6.50;3.70;;;;;;;;;;6313616;22;20023;-79
2022/01/15 12:39:32;;;;;;;5.00;2.03;;;;;;;;;;6312316;22;20514;-79
2022/01/15 12:42:01;;;;;;;5.72;2.63;;;;;;;;;;6289001;22;20004;-80
2022/01/15 12:44:32;;;;;;;5.47;2.25;;;;;;;;;;6308358;22;20038;-79
2022/01/15 12:47:01;;;;;;;5.55;2.28;;;;;;;;;;6307644;22;20019;-78
2022/01/15 12:49:38;;;;;;;5.70;2.13;;;;;;;;;;6304709;22;20046;-74
2022/01/15 12:52:09;;;;;;;5.55;2.25;;;;;;;;;;6312915;22;20426;-78
2022/01/15 12:54:38;;;;;;;5.00;1.55;;;;;;;;;;6278669;22;20046;-78
2022/01/15 12:57:07;;;;;;;5.85;2.38;;;;;;;;;;6279448;22;20011;-78
2022/01/15 12:59:39;;;;;;;5.20;2.42;;;;;;;;;;6253600;22;20015;-78
2022/01/15 13:02:08;;;;;;;5.73;1.97;;;;;;;;;;6306251;22;20027;-78
2022/01/15 13:04:37;;;;;;;5.30;1.73;;;;;;;;;;6279925;22;20015;-78
2022/01/15 13:07:06;;;;;;;5.00;2.08;;;;;;;;;;6306348;22;20085;-78
2022/01/15 13:09:45;;;;;;;2.85;1.35;;;;;;;;;;6255086;22;20015;-79
2022/01/15 13:12:45;;;;;;;4.85;1.83;;;;;;;;;;6308175;22;20057;-79
2022/01/15 13:15:22;;;;;;;9.67;2.93;;;;;;;;;;6308760;22;20465;-79
2022/01/15 13:17:51;;;;;;;6.65;1.88;;;;;;;;;;6305400;22;20042;-79
2022/01/15 13:20:28;;;;;;;3.90;1.75;;;;;;;;;;6287712;22;20023;-79
2022/01/15 13:22:59;;;;;;;3.45;1.25;;;;;;;;;;6314000;22;20023;-76
2022/01/15 13:25:29;;;;;;;4.63;1.38;;;;;;;;;;6283299;22;20041;-79
2022/01/15 13:27:59;;;;;;;4.67;1.43;;;;;;;;;;6308978;22;20015;-78
2022/01/15 13:30:30;;;;;;;4.55;1.50;;;;;;;;;;6303133;22;20022;-75
2022/01/15 13:33:01;;;;;;;6.05;1.80;;;;;;;;;;6304635;22;20015;-74
2022/01/15 13:35:32;;;;;;;4.00;1.27;;;;;;;;;;6304135;22;20049;-74
2022/01/15 13:38:02;;;;;;;4.10;1.83;;;;;;;;;;6305244;22;20041;-75
2022/01/15 13:40:33;;;;;;;4.27;1.40;;;;;;;;;;6305469;22;20011;-77
2022/01/15 13:43:03;;;;;;;4.25;1.73;;;;;;;;;;6308507;22;20022;-74
2022/01/15 13:45:34;;;;;;;3.78;1.55;;;;;;;;;;6305075;22;20086;-75
2022/01/15 13:48:22;;;;;;;3.85;1.67;;;;;;;;;;6305919;22;20011;-75
2022/01/15 13:53:49;;;;;;;6.00;1.83;;;;;;;;;;6302904;22;20015;-75
2022/01/15 13:56:20;;;;;;;4.43;1.50;;;;;;;;;;6303429;22;20046;-77
2022/01/15 13:58:50;;;;;;;6.18;2.33;;;;;;;;;;6277911;22;20462;-75
2022/01/15 14:01:26;;;;;;;4.75;1.90;;;;;;;;;;6277717;22;20046;-75
2022/01/15 14:03:56;;;;;;;3.92;1.67;;;;;;;;;;6305213;22;20065;-76
2022/01/15 14:09:22;;;;;;;4.97;1.55;;;;;;;;;;6305670;22;20086;-75
2022/01/15 14:12:01;;;;;;;4.43;1.52;;;;;;;;;;6305053;22;20053;-75
2022/01/15 14:14:57;;;;;;;5.22;1.65;;;;;;;;;;6303392;22;20011;-76
2022/01/15 14:17:28;;;;;;;4.82;1.52;;;;;;;;;;6302558;22;20029;-74
2022/01/15 14:23:07;;;;;;;3.67;1.45;;;;;;;;;;6306856;22;20025;-74
2022/01/15 14:25:40;;;;;;;7.50;2.10;;;;;;;;;;6306670;22;20377;-73
2022/01/15 14:28:10;;;;;;;7.93;2.05;;;;;;;;;;6307359;22;20012;-75
2022/01/15 14:30:43;;;;;;;5.80;1.77;;;;;;;;;;6307810;22;20094;-76
2022/01/15 14:33:14;;;;;;;3.33;1.40;;;;;;;;;;6303906;22;20023;-74
2022/01/15 14:35:45;;;;;;;5.10;1.80;;;;;;;;;;6282218;22;20019;-79
2022/01/15 14:38:17;;;;;;;6.80;1.98;;;;;;;;;;6279316;22;20408;-73
2022/01/15 14:43:36;;;;;;;5.18;1.90;;;;;;;;;;6329786;22;20043;-79
2022/01/15 14:46:08;;;;;;;7.07;2.67;;;;;;;;;;6324424;22;20035;-81
2022/01/15 14:48:40;;;;;;;5.18;1.80;;;;;;;;;;6326847;22;20050;-81
2022/01/15 14:51:16;;;;;;;5.78;2.47;;;;;;;;;;6320192;22;20031;-79
2022/01/15 14:53:46;;;;;;;4.47;1.58;;;;;;;;;;6310160;22;20466;-79
2022/01/15 14:56:16;;;;;;;3.13;1.50;;;;;;;;;;6283203;22;20015;-77
2022/01/15 14:58:45;;;;;;;4.33;2.13;;;;;;;;;;6307679;22;20051;-78
2022/01/15 15:01:15;;;;;;;4.90;1.90;;;;;;;;;;6281761;22;20049;-76
2022/01/15 15:06:55;;;;;;;4.13;1.80;;;;;;;;;;6309175;22;20350;-79
2022/01/15 15:09:26;;;;;;;6.00;2.08;;;;;;;;;;6290156;22;20021;-77
2022/01/15 15:11:59;;;;;;;4.37;1.70;;;;;;;;;;6281949;22;20023;-80
2022/01/15 15:14:53;;;;;;;7.88;2.33;;;;;;;;;;6310906;22;20015;-79
2022/01/15 15:17:23;;;;;;;5.53;1.75;;;;;;;;;;6317241;22;20079;-80
2022/01/15 15:19:54;;;;;;;3.85;1.70;;;;;;;;;;6310668;22;20020;-79
2022/01/15 15:22:23;;;;;;;7.85;2.00;;;;;;;;;;6305689;22;20046;-76
2022/01/15 15:24:54;;;;;;;6.27;2.00;;;;;;;;;;6277067;22;20022;-75
2022/01/15 15:27:23;;;;;;;4.57;1.80;;;;;;;;;;6279653;22;20015;-75
2022/01/15 15:29:53;;;;;;;5.00;1.92;;;;;;;;;;6306499;22;20086;-77
2022/01/15 15:32:22;;;;;;;4.55;1.60;;;;;;;;;;6308550;22;20019;-77
2022/01/15 15:34:53;;;;;;;7.10;2.20;;;;;;;;;;6273685;22;20339;-77
2022/01/15 15:37:23;;;;;;;5.37;1.97;;;;;;;;;;6276836;22;20019;-77
2022/01/15 15:39:53;;;;;;;6.18;2.35;;;;;;;;;;6306030;22;20462;-76
2022/01/15 15:42:22;;;;;;;5.05;2.35;;;;;;;;;;6307115;22;20015;-78
2022/01/15 15:44:54;;;;;;;4.70;2.25;;;;;;;;;;6302725;22;20076;-77
2022/01/15 15:47:24;;;;;;;6.55;2.60;;;;;;;;;;6302227;22;20483;-79
2022/01/15 15:49:56;;;;;;;4.87;2.10;;;;;;;;;;6311806;22;20094;-78
2022/01/15 15:52:25;;;;;;;7.03;2.63;;;;;;;;;;6304712;22;20035;-77
2022/01/15 15:54:56;;;;;;;5.80;2.30;;;;;;;;;;6309606;22;20023;-78
2022/01/15 15:57:25;;;;;;;7.07;2.83;;;;;;;;;;6280382;22;20027;-76
2022/01/15 15:59:55;;;;;;;6.57;2.85;;;;;;;;;;6274653;22;20044;-76
2022/01/15 16:02:24;;;;;;;4.90;2.70;;;;;;;;;;6277162;22;20030;-76
2022/01/15 16:04:56;;;;;;;7.82;3.17;;;;;;;;;;6277246;22;20058;-76
2022/01/15 16:07:27;;;;;;;3.75;2.60;;;;;;;;;;6277095;22;20459;-76
2022/01/15 16:09:58;;;;;;;5.68;2.25;;;;;;;;;;6276910;22;20081;-77
2022/01/15 16:12:28;;;;;;;7.60;3.58;;;;;;;;;;6276313;22;20016;-76
2022/01/15 16:14:58;;;;;;;9.40;2.87;;;;;;;;;;6273915;22;20008;-76
2022/01/15 16:17:28;;;;;;;8.45;2.95;;;;;;;;;;6275615;22;20059;-77
2022/01/15 16:19:58;;;;;;;5.68;3.10;;;;;;;;;;6275088;22;20031;-76
2022/01/15 16:22:27;;;;;;;5.60;2.85;;;;;;;;;;6276437;22;20074;-76
2022/01/15 16:24:58;;;;;;;7.40;3.03;;;;;;;;;;6274810;22;20063;-77
2022/01/15 16:27:27;;;;;;;7.20;2.57;;;;;;;;;;6275967;22;20461;-77
2022/01/15 16:29:59;;;;;;;6.47;2.30;;;;;;;;;;6274207;22;20011;-74
2022/01/15 16:32:29;;;;;;;7.60;2.85;;;;;;;;;;6275312;22;20039;-74
2022/01/15 16:35:00;;;;;;;5.82;2.97;;;;;;;;;;6272879;22;20377;-74
2022/01/15 16:37:29;;;;;;;7.82;2.80;;;;;;;;;;6276072;22;20019;-75
2022/01/15 16:39:59;;;;;;;4.97;2.50;;;;;;;;;;6274720;22;20024;-74
2022/01/15 16:42:28;;;;;;;8.30;3.00;;;;;;;;;;6275730;22;20518;-75
2022/01/15 16:44:58;;;;;;;6.25;2.10;;;;;;;;;;6275963;22;20027;-77
2022/01/15 16:47:27;;;;;;;6.63;2.75;;;;;;;;;;6274713;22;20650;-76
2022/01/15 16:49:57;;;;;;;9.18;3.15;;;;;;;;;;6275474;22;20024;-76
2022/01/15 16:52:29;;;;;;;6.17;2.97;;;;;;;;;;6274551;22;20022;-74
2022/01/15 16:55:03;;;;;;;7.05;2.30;;;;;;;;;;6275999;22;20529;-76
2022/01/15 16:57:32;;;;;;;8.57;2.55;;;;;;;;;;6272987;22;20019;-76
2022/01/15 17:00:03;;;;;;;7.30;3.42;;;;;;;;;;6272658;22;20473;-76
2022/01/15 17:02:32;;;;;;;5.90;2.90;;;;;;;;;;6272479;22;20468;-76
2022/01/15 17:05:01;;;;;;;6.63;3.17;;;;;;;;;;6275303;22;20019;-74
2022/01/15 17:07:33;;;;;;;6.82;2.97;;;;;;;;;;6247535;22;20034;-74
2022/01/15 17:10:03;;;;;;;8.35;3.78;;;;;;;;;;6277751;22;20042;-78
2022/01/15 17:12:38;;;;;;;11.07;3.55;;;;;;;;;;6277481;22;20046;-75
2022/01/15 17:15:08;;;;;;;6.95;3.95;;;;;;;;;;6274635;22;20046;-78
2022/01/15 17:17:37;;;;;;;6.90;3.47;;;;;;;;;;6274386;22;20443;-76
2022/01/15 17:20:08;;;;;;;9.55;4.13;;;;;;;;;;6272023;22;20478;-75
2022/01/15 17:22:39;;;;;;;4.82;2.83;;;;;;;;;;6246927;22;20073;-75
2022/01/15 17:25:09;;;;;;;9.98;3.38;;;;;;;;;;6273490;22;20039;-75
2022/01/15 17:27:41;;;;;;;7.25;3.65;;;;;;;;;;6274947;22;20027;-78
2022/01/15 17:30:11;;;;;;;9.47;3.77;;;;;;;;;;6274946;22;20437;-73
2022/01/15 17:32:41;;;;;;;6.72;2.60;;;;;;;;;;6273730;22;20073;-74
2022/01/15 17:35:10;;;;;;;7.85;2.80;;;;;;;;;;6275068;22;20391;-78
2022/01/15 17:37:41;;;;;;;7.25;3.63;;;;;;;;;;6274968;22;20032;-75
2022/01/15 17:40:12;;;;;;;8.82;3.78;;;;;;;;;;6274185;22;20431;-76
2022/01/15 17:42:42;;;;;;;6.90;3.67;;;;;;;;;;6274528;22;20073;-75
2022/01/15 17:45:12;;;;;;;6.97;3.22;;;;;;;;;;6275850;22;20462;-74
2022/01/15 17:47:41;;;;;;;8.02;3.65;;;;;;;;;;6273756;22;20020;-78
2022/01/15 17:50:32;;;;;;;8.30;3.70;;;;;;;;;;6276063;22;20016;-76
2022/01/15 17:53:03;;;;;;;6.53;3.88;;;;;;;;;;6274330;22;20022;-75
2022/01/15 17:55:32;;;;;;;9.43;3.20;;;;;;;;;;6248759;22;20022;-75
2022/01/15 17:58:01;;;;;;;11.45;4.15;;;;;;;;;;6272732;22;20347;-75
2022/01/15 18:00:31;;;;;;;8.68;4.05;;;;;;;;;;6306733;22;20023;-75
2022/01/15 18:03:01;;;;;;;8.77;3.25;;;;;;;;;;6307895;22;20019;-75
2022/01/15 18:05:30;;;;;;;8.15;2.80;;;;;;;;;;6287280;22;20043;-75
2022/01/15 18:07:58;;;;;;;8.80;3.70;;;;;;;;;;6288501;22;20019;-75
2022/01/15 18:10:29;;;;;;;8.38;3.40;;;;;;;;;;6314565;22;20027;-74
2022/01/15 18:12:59;;;;;;;6.63;3.38;;;;;;;;;;6313456;22;20395;-75
2022/01/15 18:15:29;;;;;;;6.05;3.10;;;;;;;;;;6312570;22;20461;-75
2022/01/15 18:17:58;;;;;;;6.65;2.83;;;;;;;;;;6286304;22;20470;-75
2022/01/15 18:20:30;;;;;;;7.00;3.13;;;;;;;;;;6304873;22;20053;-75
2022/01/15 18:23:00;;;;;;;9.15;3.42;;;;;;;;;;6279282;22;20320;-75
2022/01/15 18:25:35;;;;;;;9.80;3.05;;;;;;;;;;6276903;22;20058;-75